Saint Pete Beach, FL

7:37 PM EDT on July 27, 2016 (GMT -0400)
Saint Pete Beach | | Change Station

Elev 9 ft 27.74 °N, 82.75 °W | Updated 2 minutes ago

Mostly Cloudy
Mostly Cloudy
89.6 °F
Feels Like 101 °F
N
2.2
Wind Variable Wind from SW
Gusts 8.3 mph

Today
High -- | Low -- °F
--% Chance of Precip.
Yesterday
High -- | Low -- °F
Precip. -- in
Pressure 30.01 in
Visibility 10.0 miles
Clouds Mostly Cloudy 5500 ft
Heat Index 101 °F
Dew Point 76 °F
Humidity 64%
Rainfall 0.01 in
Snow Depth Not available.
6:51 AM 8:23 PM
Last Quarter, 38% visible
SPECI KSPG 272323Z 30005KT 10SM BKN055 30/25 A3001 RMK AO2 LTG DSNT N AND NE AND S TSB00E19 T03000250
Pressure 30.01 in
Visibility 10.0 miles
Clouds Mostly Cloudy 5500 ft
Heat Index 101 °F
Dew Point 76 °F
Humidity 64%
Rainfall 0.01 in
Snow Depth Not available.
6:51 AM 8:23 PM
Last Quarter, 38% visible
SPECI KSPG 272323Z 30005KT 10SM BKN055 30/25 A3001 RMK AO2 LTG DSNT N AND NE AND S TSB00E19 T03000250

10-Day Weather Forecast

Almanac

Astronomy

Jul. 27, 2016 Rise Set
Actual Time
Civil Twilight
Nautical Twilight
Astronomical Twilight
Moon
Length of Visible Light
Length of Day
Tomorrow will be .
, % of the Moon is Illuminated

Today's Extremes

State Highs State Lows

Community

WunderPhotos

Upload Photos

1,927,957 photos uploaded!

WunderBlog® & News

Nearby

Air Quality

  Air Quality AQ Index Pollutant
Not available.

Snow Depth

Station Depth Elevation

Earthquake Activity

City Distance Mag. Time & Date
Minimum magnitude displayed is 2.5.

Coastal Water Temperatures

Place Temperature

Stations

Nearby Weather Stations

Station Location Temp. Windchill Dew Point Humidity Wind Precip. Elev Updated Type
                   

Watches & Warnings

There are currently no watches in effect.